Time;durP1;ratioP1;P1;durP2;ratioP2;P2;SDS_P1;SDS_P2;PMS_P1;PMS_P2;Temp;Humidity;BMP_temperature;BMP_pressure;BME280_temperature;BME280_humidity;BME280_pressure;Samples;Min_cycle;Max_cycle;Signal;HPM_P1;HPM_P2
2022/10/16 07:33:20;;;;;;;;;4.25;2.75;;;;;17.11;73.35;101278.56;2817594;23;45884;-87
2022/10/16 07:34:30;;;;;;;;;4.50;4.50;;;;;17.15;73.35;101284.56;2392427;28;45482;-87
2022/10/16 07:35:52;;;;;;;;;6.00;5.25;;;;;17.19;73.04;101286.13;2390869;28;46222;-87
2022/10/16 07:37:02;;;;;;;;;7.50;6.00;;;;;17.23;73.21;101293.03;2374639;28;44755;-87
2022/10/16 07:38:12;;;;;;;;;7.00;6.00;;;;;17.25;73.18;101291.16;2380395;28;45536;-87
2022/10/16 07:39:23;;;;;;;;;6.00;6.00;;;;;17.29;73.03;101290.03;2383658;28;45306;-88
2022/10/16 07:40:33;;;;;;;;;6.50;5.50;;;;;17.31;72.61;101293.47;2380481;28;48023;-88
2022/10/16 07:41:44;;;;;;;;;5.25;5.00;;;;;17.34;72.77;101295.09;2376454;28;45327;-88
2022/10/16 07:42:55;;;;;;;;;6.75;6.50;;;;;17.38;73.06;101285.19;2385380;28;46755;-88
2022/10/16 07:44:06;;;;;;;;;5.00;4.50;;;;;17.41;72.94;101282.34;2391510;28;44771;-88
2022/10/16 07:45:17;;;;;;;;;3.00;3.00;;;;;17.45;72.77;101299.00;2382373;28;46744;-88
2022/10/16 07:46:28;;;;;;;;;5.50;5.50;;;;;17.48;72.89;101304.16;2377459;28;45212;-88
2022/10/16 07:47:38;;;;;;;;;6.00;6.00;;;;;17.49;73.10;101301.41;2380611;28;47293;-88
2022/10/16 07:48:50;;;;;;;;;9.00;7.50;;;;;17.48;73.03;101301.50;2387705;28;45298;-88
2022/10/16 07:50:01;;;;;;;;;6.00;5.00;;;;;17.49;73.20;101306.72;2389410;28;46382;-87
2022/10/16 07:51:12;;;;;;;;;6.25;5.25;;;;;17.50;72.84;101302.25;2382270;28;45453;-88
2022/10/16 07:52:23;;;;;;;;;8.25;7.25;;;;;17.50;72.65;101305.78;2374864;28;47438;-88
2022/10/16 07:53:33;;;;;;;;;7.00;6.00;;;;;17.53;72.83;101310.91;2372212;28;44781;-87
2022/10/16 07:54:44;;;;;;;;;7.75;6.50;;;;;17.56;72.44;101306.41;2381127;28;45385;-88
2022/10/16 07:56:02;;;;;;;;;7.00;5.50;;;;;17.61;72.77;101309.66;2393156;28;45289;-88
2022/10/16 07:57:18;;;;;;;;;6.00;5.50;;;;;17.64;72.45;101305.03;2385862;28;46665;-88
2022/10/16 07:58:29;;;;;;;;;11.00;7.00;;;;;17.67;72.73;101301.34;2388879;28;45121;-88
2022/10/16 07:59:40;;;;;;;;;5.75;5.00;;;;;17.70;72.43;101293.22;2389060;28;45504;-88
2022/10/16 08:00:50;;;;;;;;;4.25;3.75;;;;;17.73;72.38;101298.34;2391778;28;45428;-88
2022/10/16 08:02:01;;;;;;;;;5.00;5.00;;;;;17.76;71.95;101295.53;2389903;28;45347;-88
2022/10/16 08:03:11;;;;;;;;;5.75;5.75;;;;;17.82;72.21;101296.13;2388179;28;45240;-88
2022/10/16 08:04:21;;;;;;;;;6.00;4.00;;;;;17.87;72.17;101310.03;2382427;28;47750;-88
2022/10/16 08:05:33;;;;;;;;;6.75;5.50;;;;;17.91;72.36;101316.91;2381008;28;44733;-88
2022/10/16 08:06:43;;;;;;;;;6.50;3.50;;;;;17.95;72.23;101317.59;2380508;28;48248;-88
2022/10/16 08:07:54;;;;;;;;;4.00;4.00;;;;;18.00;71.57;101324.34;2384237;28;45424;-88
2022/10/16 08:09:06;;;;;;;;;3.75;3.75;;;;;18.04;71.89;101321.53;2376206;28;47102;-88
2022/10/16 08:10:18;;;;;;;;;4.00;4.00;;;;;18.10;71.92;101324.69;2381152;28;46375;-88
2022/10/16 08:11:28;;;;;;;;;3.00;3.00;;;;;18.18;71.25;101334.06;2379096;28;47347;-88
2022/10/16 08:12:38;;;;;;;;;3.50;3.50;;;;;18.22;71.15;101338.31;2385085;28;44735;-88
2022/10/16 08:13:49;;;;;;;;;4.00;4.00;;;;;18.29;71.31;101346.81;2382189;28;46607;-88
2022/10/16 08:14:59;;;;;;;;;4.75;4.00;;;;;18.37;71.25;101341.06;2384166;28;45182;-89
2022/10/16 08:16:09;;;;;;;;;5.75;3.75;;;;;18.40;71.52;101341.72;2387687;28;46953;-88
2022/10/16 08:17:20;;;;;;;;;2.00;2.00;;;;;18.48;70.41;101333.31;2392915;28;45453;-89
2022/10/16 08:18:30;;;;;;;;;4.00;4.00;;;;;18.53;70.57;101333.91;2382276;28;47186;-87
2022/10/16 08:19:45;;;;;;;;;5.50;4.00;;;;;18.59;70.43;101338.03;2375681;28;45268;-88
2022/10/16 08:20:57;;;;;;;;;6.50;4.00;;;;;18.64;70.25;101330.59;2378142;28;47346;-88
2022/10/16 08:22:08;;;;;;;;;6.25;4.50;;;;;18.70;70.56;101336.50;2379273;28;45266;-88
2022/10/16 08:23:18;;;;;;;;;3.00;2.00;;;;;18.74;69.88;101333.59;2375553;28;48479;-88
2022/10/16 08:24:30;;;;;;;;;2.50;2.50;;;;;18.77;69.29;101330.75;2385719;28;45179;-88
2022/10/16 08:25:41;;;;;;;;;2.00;2.00;;;;;18.85;69.08;101327.63;2392303;28;46306;-87
2022/10/16 08:26:54;;;;;;;;;2.00;2.00;;;;;18.89;68.78;101323.84;2381501;28;45456;-87
2022/10/16 08:28:06;;;;;;;;;3.00;3.00;;;;;18.96;68.39;101318.16;2377144;28;47040;-87
2022/10/16 08:29:17;;;;;;;;;3.00;2.00;;;;;19.00;68.09;101325.88;2374271;28;44773;-87
2022/10/16 08:30:27;;;;;;;;;3.75;2.75;;;;;19.06;68.13;101329.13;2375455;28;48595;-86
2022/10/16 08:31:37;;;;;;;;;5.25;3.75;;;;;19.10;68.30;101331.50;2373613;28;44773;-87
2022/10/16 08:32:48;;;;;;;;;2.00;2.00;;;;;19.16;68.05;101337.44;2369178;28;47386;-87
2022/10/16 08:33:58;;;;;;;;;2.00;2.00;;;;;19.20;67.51;101338.97;2373651;28;45801;-87
2022/10/16 08:35:10;;;;;;;;;3.00;1.50;;;;;19.25;67.50;101342.22;2381753;28;48246;-86
2022/10/16 08:36:21;;;;;;;;;3.25;3.00;;;;;19.30;67.00;101339.28;2386144;28;45420;-87
2022/10/16 08:37:32;;;;;;;;;4.50;4.50;;;;;19.37;68.01;101342.41;2390945;28;45579;-87
2022/10/16 08:38:43;;;;;;;;;4.25;3.25;;;;;19.40;67.75;101343.09;2374134;28;45455;-87
2022/10/16 08:39:53;;;;;;;;;5.00;4.00;;;;;19.43;67.10;101337.56;2373249;28;47485;-87
2022/10/16 08:41:13;;;;;;;;;5.50;3.00;;;;;19.49;67.57;101340.81;2384299;28;45440;-87
2022/10/16 08:42:41;;;;;;;;;5.75;4.00;;;;;19.52;67.88;101345.94;2392409;28;45464;-87
2022/10/16 08:44:03;;;;;;;;;5.00;4.25;;;;;19.53;67.24;101332.50;2382585;28;44671;-84
2022/10/16 08:45:31;;;;;;;;;3.00;2.25;;;;;19.57;66.99;101343.88;2384985;28;45539;-85
2022/10/16 08:46:56;;;;;;;;;3.25;3.25;;;;;19.59;67.08;101338.41;2374144;28;45253;-85
2022/10/16 08:48:31;;;;;;;;;2.50;2.00;;;;;19.60;66.41;101333.00;2370281;28;47251;-84
2022/10/16 08:49:46;;;;;;;;;3.50;2.25;;;;;19.61;65.96;101339.19;2387205;28;44566;-84
2022/10/16 08:50:56;;;;;;;;;3.50;2.00;;;;;19.59;65.97;101331.28;2375211;28;47006;-84
2022/10/16 08:52:13;;;;;;;;;3.25;3.25;;;;;19.61;66.03;101341.84;2375642;28;45473;-85
2022/10/16 08:54:13;;;;;;;;;4.00;2.50;;;;;19.62;66.33;101338.25;2373933;28;48054;-85
2022/10/16 08:55:46;;;;;;;;;3.25;3.25;;;;;19.63;66.75;101343.47;2371240;28;45614;-85
2022/10/16 08:57:07;;;;;;;;;5.00;3.25;;;;;19.65;66.13;101344.25;2376435;28;46621;-85
2022/10/16 08:58:20;;;;;;;;;2.00;2.00;;;;;19.67;65.71;101342.34;2377653;28;45303;-85
2022/10/16 08:59:31;;;;;;;;;3.00;2.00;;;;;19.69;65.67;101336.91;2383139;28;47369;-84
2022/10/16 09:00:43;;;;;;;;;3.50;3.00;;;;;19.70;65.76;101338.63;2386166;28;45236;-84
2022/10/16 09:01:54;;;;;;;;;5.00;3.00;;;;;19.72;66.13;101343.84;2377860;28;48050;-85
2022/10/16 09:03:22;;;;;;;;;3.75;3.75;;;;;19.73;65.21;101335.75;2371491;28;44833;-82
2022/10/16 09:05:07;;;;;;;;;4.50;4.50;;;;;19.76;65.74;101342.72;2388144;28;45404;-85
2022/10/16 09:06:20;;;;;;;;;5.25;3.00;;;;;19.75;65.29;101346.34;2354978;29;44663;-85
2022/10/16 09:07:46;;;;;;;;;7.00;4.25;;;;;19.72;65.49;101347.38;2389122;28;46301;-85
2022/10/16 09:09:22;;;;;;;;;6.50;4.00;;;;;19.71;65.60;101356.31;2378860;28;45723;-86
2022/10/16 09:10:45;;;;;;;;;3.25;3.25;;;;;19.70;65.46;101353.78;2376763;28;47336;-87
2022/10/16 09:12:06;;;;;;;;;4.50;4.50;;;;;19.69;65.14;101352.91;2383165;28;45177;-87
2022/10/16 09:13:27;;;;;;;;;2.50;2.50;;;;;19.68;65.23;101357.38;2388976;28;45630;-87
2022/10/16 09:14:54;;;;;;;;;5.00;3.00;;;;;19.66;65.67;101355.75;2387754;28;45218;-87
2022/10/16 09:16:24;;;;;;;;;3.75;3.75;;;;;19.67;65.13;101355.69;2385000;28;45363;-87
2022/10/16 09:17:44;;;;;;;;;5.75;3.75;;;;;19.66;65.77;101361.09;2388181;28;45464;-87
2022/10/16 09:19:27;;;;;;;;;4.00;3.00;;;;;19.62;65.45;101357.78;2390520;28;45670;-87
2022/10/16 09:20:59;;;;;;;;;4.50;4.00;;;;;19.59;65.50;101357.94;2390867;28;45264;-87
2022/10/16 09:22:14;;;;;;;;;3.75;3.25;;;;;19.55;65.66;101346.63;2391320;28;46353;-87
2022/10/16 09:23:31;;;;;;;;;3.50;2.75;;;;;19.52;65.54;101341.47;2392420;28;44946;-86
2022/10/16 09:24:41;;;;;;;;;4.25;3.25;;;;;19.49;65.58;101343.47;2385529;28;47511;-86
2022/10/16 09:25:53;;;;;;;;;4.50;3.25;;;;;19.47;65.54;101338.25;2385057;28;44668;-86
2022/10/16 09:27:04;;;;;;;;;3.25;3.25;;;;;19.42;65.55;101333.19;2384274;28;45425;-86
2022/10/16 09:28:15;;;;;;;;;5.50;4.00;;;;;19.42;65.76;101343.00;2384131;28;45323;-86
2022/10/16 09:29:26;;;;;;;;;3.00;3.00;;;;;19.39;65.63;101345.84;2393143;28;46479;-86
2022/10/16 09:30:37;;;;;;;;;4.25;4.00;;;;;19.36;65.79;101343.38;2378858;28;44860;-88
2022/10/16 09:31:48;;;;;;;;;3.00;3.00;;;;;19.34;65.67;101344.31;2373467;28;47409;-86
2022/10/16 09:32:59;;;;;;;;;3.75;3.00;;;;;19.32;65.74;101340.03;2383883;28;45295;-86
2022/10/16 09:34:34;;;;;;;;;3.00;2.00;;;;;19.30;65.50;101341.94;2391767;28;45598;-87
2022/10/16 09:35:48;;;;;;;;;4.25;3.00;;;;;19.29;65.79;101342.88;2382439;28;44702;-88
2022/10/16 09:37:02;;;;;;;;;4.25;3.25;;;;;19.31;65.45;101349.00;2387901;28;46239;-87
2022/10/16 09:38:25;;;;;;;;;4.50;4.00;;;;;19.34;65.31;101341.66;2384573;28;45346;-87
2022/10/16 09:39:53;;;;;;;;;3.00;3.00;;;;;19.39;65.43;101346.69;2388647;28;46983;-87
2022/10/16 09:41:16;;;;;;;;;4.50;4.00;;;;;19.41;65.45;101346.63;2379308;28;44874;-87
2022/10/16 09:42:34;;;;;;;;;5.50;4.00;;;;;19.46;65.43;101352.50;2381649;28;47203;-87
2022/10/16 09:43:57;;;;;;;;;4.00;3.00;;;;;19.49;64.87;101356.78;2375737;28;45359;-88
2022/10/16 09:45:20;;;;;;;;;5.00;3.75;;;;;19.49;64.95;101357.66;2381086;28;47078;-87
2022/10/16 09:46:36;;;;;;;;;3.25;3.00;;;;;19.52;65.07;101362.81;2370561;28;44650;-87
2022/10/16 09:47:46;;;;;;;;;6.25;2.00;;;;;19.55;65.33;101361.78;2383067;28;46310;-85
2022/10/16 09:49:02;;;;;;;;;3.00;3.00;;;;;19.58;65.28;101355.38;2376682;28;45403;-86
2022/10/16 09:50:31;;;;;;;;;2.50;2.50;;;;;19.63;64.74;101361.31;2375990;28;47083;-86
2022/10/16 09:51:41;;;;;;;;;3.00;3.00;;;;;19.69;64.70;101363.56;2378889;28;45424;-86
2022/10/16 09:53:06;;;;;;;;;2.25;2.25;;;;;19.74;64.85;101365.94;2385344;28;46578;-86
2022/10/16 09:54:19;;;;;;;;;2.00;2.00;;;;;19.82;64.42;101365.47;2384760;28;45801;-86
2022/10/16 09:55:29;;;;;;;;;3.75;3.00;;;;;19.86;64.01;101365.19;2375398;28;48188;-86
2022/10/16 09:56:40;;;;;;;;;2.75;2.75;;;;;19.93;64.21;101359.47;2377417;28;44642;-85
2022/10/16 09:57:54;;;;;;;;;2.25;2.25;;;;;19.97;64.27;101359.19;2377687;28;47873;-85
2022/10/16 09:59:23;;;;;;;;;2.75;2.00;;;;;20.03;63.52;101355.25;2387704;28;45262;-85
2022/10/16 10:00:34;;;;;;;;;1.50;1.50;;;;;20.07;63.72;101351.44;2382544;28;47163;-85
2022/10/16 10:01:49;;;;;;;;;1.00;1.00;;;;;20.09;63.82;101349.53;2385465;28;44731;-85
2022/10/16 10:02:59;;;;;;;;;2.75;2.75;;;;;20.12;63.76;101348.53;2380720;28;47825;-85
2022/10/16 10:04:11;;;;;;;;;2.00;2.00;;;;;20.18;63.74;101344.56;2379759;28;45236;-85
2022/10/16 10:05:25;;;;;;;;;4.00;3.00;;;;;20.22;63.78;101340.78;2379501;28;47091;-85
2022/10/16 10:06:48;;;;;;;;;1.00;1.00;;;;;20.26;63.51;101333.41;2377378;28;45440;-85
2022/10/16 10:08:02;;;;;;;;;2.50;1.75;;;;;20.30;63.72;101322.44;2379515;28;45498;-85
2022/10/16 10:09:18;;;;;;;;;2.25;2.25;;;;;20.35;63.52;101327.47;2388383;28;45516;-85
2022/10/16 10:10:32;;;;;;;;;2.00;2.00;;;;;20.36;63.29;101315.84;2383994;28;47307;-86
2022/10/16 10:11:44;;;;;;;;;1.50;1.50;;;;;20.40;63.48;101311.13;2370266;28;44815;-86
2022/10/16 10:12:55;;;;;;;;;2.00;2.00;;;;;20.42;63.14;101307.41;2375353;28;45502;-87
2022/10/16 10:14:17;;;;;;;;;2.00;2.00;;;;;20.45;63.62;101317.03;2384168;28;45439;-87
2022/10/16 10:15:34;;;;;;;;;2.00;1.50;;;;;20.49;63.46;101315.03;2386179;28;46999;-87
2022/10/16 10:16:45;;;;;;;;;1.00;1.00;;;;;20.49;63.73;101307.88;2380343;28;45142;-86
2022/10/16 10:17:57;;;;;;;;;1.50;1.00;;;;;20.52;63.36;101314.84;2385018;28;46003;-87
2022/10/16 10:19:17;;;;;;;;;0.25;0.25;;;;;20.51;62.85;101316.66;2379992;28;45199;-86
2022/10/16 10:20:34;;;;;;;;;2.00;1.00;;;;;20.53;63.51;101311.19;2380759;28;47362;-86
2022/10/16 10:21:45;;;;;;;;;1.50;1.50;;;;;20.54;63.35;101310.25;2379542;28;45550;-87
2022/10/16 10:22:56;;;;;;;;;1.00;1.00;;;;;20.55;63.38;101311.94;2373500;28;46277;-86
2022/10/16 10:24:11;;;;;;;;;2.00;2.00;;;;;20.56;63.14;101317.19;2374058;28;45446;-89
2022/10/16 10:25:24;;;;;;;;;1.25;1.25;;;;;20.57;62.60;101318.03;2381699;28;45424;-86
2022/10/16 10:26:35;;;;;;;;;1.00;1.00;;;;;20.55;62.57;101309.28;2387033;28;45480;-86
2022/10/16 10:27:51;;;;;;;;;1.50;0.75;;;;;20.57;62.40;101321.56;2393824;28;46209;-86
2022/10/16 10:29:07;;;;;;;;;0.25;0.00;;;;;20.59;62.93;101324.16;2379938;28;45516;-87
2022/10/16 10:30:27;;;;;;;;;0.50;0.50;;;;;20.59;62.41;101321.47;2385340;28;46382;-87
2022/10/16 10:32:14;;;;;;;;;1.75;1.75;;;;;20.61;62.91;101326.72;2394402;28;45424;-86
2022/10/16 10:34:03;;;;;;;;;1.00;0.50;;;;;20.63;62.98;101320.31;2387532;28;47216;-86
2022/10/16 10:35:22;;;;;;;;;1.00;1.00;;;;;20.64;62.49;101316.66;2339409;29;45501;-86
2022/10/16 10:36:37;;;;;;;;;1.25;1.00;;;;;20.68;62.85;101323.53;2371623;28;47572;-86
2022/10/16 10:38:14;;;;;;;;;1.00;1.00;;;;;20.71;62.86;101327.81;2376894;28;44753;-86
2022/10/16 10:39:27;;;;;;;;;2.00;2.00;;;;;20.73;63.05;101320.53;2388987;28;46347;-86
2022/10/16 10:40:48;;;;;;;;;1.00;1.00;;;;;20.77;62.70;101321.19;2375616;28;46110;-86
2022/10/16 10:42:01;;;;;;;;;1.25;1.25;;;;;20.78;62.54;101322.91;2377134;28;47625;-86
2022/10/16 10:43:41;;;;;;;;;1.25;1.25;;;;;20.79;62.48;101322.78;2372139;28;45312;-86
2022/10/16 10:45:06;;;;;;;;;1.00;0.25;;;;;20.86;62.92;101328.59;2381185;28;48388;-86
2022/10/16 10:46:34;;;;;;;;;1.25;1.25;;;;;20.89;62.49;101332.88;2389089;28;45282;-86
2022/10/16 10:48:05;;;;;;;;;0.75;0.75;;;;;20.93;62.35;101329.03;2380230;28;48028;-86
2022/10/16 10:49:30;;;;;;;;;0.00;0.00;;;;;20.96;62.33;101319.94;2379824;28;45300;-86
2022/10/16 10:50:51;;;;;;;;;1.00;1.00;;;;;20.99;62.40;101327.75;2374698;28;48120;-86
2022/10/16 10:52:17;;;;;;;;;1.75;1.00;;;;;21.02;62.20;101319.53;2379334;28;45183;-86
2022/10/16 10:53:41;;;;;;;;;0.00;0.00;;;;;21.04;62.06;101325.63;2380782;28;48333;-87
2022/10/16 10:54:54;;;;;;;;;0.50;0.50;;;;;21.06;62.33;101326.41;2379765;28;45167;-86
2022/10/16 10:56:10;;;;;;;;;1.00;1.00;;;;;21.07;62.18;101327.25;2390279;28;46531;-84
2022/10/16 10:57:51;;;;;;;;;0.75;0.25;;;;;21.02;62.22;101314.19;2381801;28;45243;-84
2022/10/16 10:59:40;;;;;;;;;0.00;0.00;;;;;21.06;61.49;101328.22;2387439;28;46407;-84
2022/10/16 11:01:10;;;;;;;;;1.00;1.00;;;;;21.04;61.58;101325.63;2377788;28;45555;-84
2022/10/16 11:02:20;;;;;;;;;3.00;0.25;;;;;21.04;61.38;101322.13;2385250;28;46916;-84
2022/10/16 11:03:42;;;;;;;;;1.00;1.00;;;;;21.02;61.63;101315.06;2383971;28;45474;-84
2022/10/16 11:05:13;;;;;;;;;0.25;0.25;;;;;21.00;61.52;101308.06;2388242;28;47563;-83
2022/10/16 11:06:32;;;;;;;;;2.75;1.00;;;;;21.00;61.50;101308.97;2382361;28;45379;-84
2022/10/16 11:07:52;;;;;;;;;0.00;0.00;;;;;20.99;61.35;101311.72;2372818;28;47823;-84
2022/10/16 11:09:30;;;;;;;;;2.00;2.00;;;;;20.98;61.93;101304.66;2380453;28;45536;-83
2022/10/16 11:10:58;;;;;;;;;1.00;1.00;;;;;21.00;62.38;101316.09;2383403;28;47261;-84
2022/10/16 11:12:26;;;;;;;;;1.00;1.00;;;;;20.97;62.55;101308.28;2384940;28;45312;-84
2022/10/16 11:13:59;;;;;;;;;0.75;0.75;;;;;20.94;61.18;101292.47;2382400;28;48144;-84
2022/10/16 11:15:25;;;;;;;;;1.00;1.00;;;;;20.96;61.65;101306.59;2387319;28;45258;-84
2022/10/16 11:16:58;;;;;;;;;0.00;0.00;;;;;20.98;61.70;101300.19;2393509;28;46423;-84
2022/10/16 11:18:18;;;;;;;;;1.00;1.00;;;;;20.98;60.74;101305.53;2370704;28;45580;-84
2022/10/16 11:19:50;;;;;;;;;1.00;1.00;;;;;21.01;60.91;101297.31;2389104;28;45497;-84
2022/10/16 11:21:07;;;;;;;;;1.25;0.75;;;;;21.02;61.26;101287.47;2382011;28;45352;-84
2022/10/16 11:22:31;;;;;;;;;1.00;0.00;;;;;21.05;61.22;101289.09;2383885;28;45276;-84
2022/10/16 11:23:51;;;;;;;;;1.00;1.00;;;;;21.05;61.06;101289.94;2394105;28;45492;-83
2022/10/16 11:25:16;;;;;;;;;0.00;0.00;;;;;21.07;60.81;101296.03;2382749;28;48132;-84
2022/10/16 11:26:33;;;;;;;;;1.00;1.00;;;;;21.07;60.57;101285.34;2374762;28;45454;-84
2022/10/16 11:27:54;;;;;;;;;1.00;1.00;;;;;21.07;60.84;101290.69;2383471;28;45470;-84
2022/10/16 11:29:13;;;;;;;;;0.00;0.00;;;;;21.07;60.96;101290.69;2376049;28;45216;-84
2022/10/16 11:30:30;;;;;;;;;0.00;0.00;;;;;21.04;60.62;101277.53;2370958;28;48565;-83
2022/10/16 11:31:47;;;;;;;;;0.00;0.00;;;;;21.08;60.67;101289.75;2384663;28;44799;-84
2022/10/16 11:33:35;;;;;;;;;1.50;1.00;;;;;21.08;60.92;101289.75;2386634;28;45784;-83
2022/10/16 11:34:51;;;;;;;;;1.50;1.00;;;;;21.08;60.77;101291.56;2384567;28;45336;-83
2022/10/16 11:36:04;;;;;;;;;0.00;0.00;;;;;21.10;60.81;101285.16;2390667;28;45628;-84
2022/10/16 11:37:21;;;;;;;;;0.00;0.00;;;;;21.12;60.79;101293.91;2379219;28;44824;-84
2022/10/16 11:38:38;;;;;;;;;0.00;0.00;;;;;21.13;60.98;101290.28;2379490;28;45453;-84
2022/10/16 11:39:50;;;;;;;;;1.00;1.00;;;;;21.14;60.58;101283.97;2382577;28;45264;-84
2022/10/16 11:41:22;;;;;;;;;0.00;0.00;;;;;21.17;60.03;101290.03;2373949;28;47164;-83
2022/10/16 11:42:39;;;;;;;;;1.75;1.00;;;;;21.19;60.54;101282.78;2383882;28;45418;-84
2022/10/16 11:44:06;;;;;;;;;1.00;1.00;;;;;21.20;60.31;101289.84;2382853;28;47227;-84
2022/10/16 11:45:33;;;;;;;;;0.00;0.00;;;;;21.24;60.78;101285.97;2384333;28;45342;-84
2022/10/16 11:46:52;;;;;;;;;0.25;0.25;;;;;21.26;60.16;101284.06;2385568;28;48141;-83
2022/10/16 11:48:12;;;;;;;;;2.00;0.00;;;;;21.29;59.83;101281.16;2381636;28;44680;-83
2022/10/16 11:49:26;;;;;;;;;1.00;1.00;;;;;21.30;60.27;101272.19;2376959;28;46795;-84
2022/10/16 11:50:58;;;;;;;;;0.50;0.50;;;;;21.32;59.87;101275.63;2384866;28;45265;-84
2022/10/16 11:52:25;;;;;;;;;0.00;0.00;;;;;21.32;59.82;101272.09;2376123;28;47137;-83
2022/10/16 11:53:53;;;;;;;;;0.50;0.50;;;;;21.31;59.75;101275.72;2383161;28;45457;-83
2022/10/16 11:55:09;;;;;;;;;0.00;0.00;;;;;21.31;60.08;101265.03;2387713;28;45616;-83
2022/10/16 11:56:21;;;;;;;;;1.00;1.00;;;;;21.30;59.51;101263.31;2376443;28;45398;-84
2022/10/16 11:57:42;;;;;;;;;1.00;0.75;;;;;21.25;59.83;101261.84;2376484;28;47871;-83
2022/10/16 11:59:04;;;;;;;;;0.25;0.25;;;;;21.23;59.90;101257.56;2370155;28;45359;-83
2022/10/16 12:01:20;;;;;;;;;0.00;0.00;;;;;21.21;59.44;101254.16;2382470;28;46104;-83
2022/10/16 12:02:54;;;;;;;;;0.25;0.25;;;;;21.16;60.26;101257.16;2345298;29;45278;-83
2022/10/16 12:04:33;;;;;;;;;0.00;0.00;;;;;21.13;59.89;101254.69;2341920;29;47333;-83
2022/10/16 12:06:02;;;;;;;;;0.00;0.00;;;;;21.13;60.29;101254.69;2350452;29;45639;-83
2022/10/16 12:07:19;;;;;;;;;0.00;0.00;;;;;21.12;60.17;101251.16;2346566;29;46242;-83
2022/10/16 12:08:30;;;;;;;;;0.00;0.00;;;;;21.11;60.04;101243.25;2370292;28;45211;-84
2022/10/16 12:09:41;;;;;;;;;0.00;0.00;;;;;21.12;60.83;101240.44;2382891;28;45202;-83
2022/10/16 12:10:52;;;;;;;;;0.75;0.75;;;;;21.12;60.58;101243.13;2391549;28;45155;-83
2022/10/16 12:12:03;;;;;;;;;0.00;0.00;;;;;21.13;60.05;101244.84;2388603;28;46446;-83
2022/10/16 12:13:36;;;;;;;;;0.00;0.00;;;;;21.16;60.06;101235.75;2393358;28;45312;-83
2022/10/16 12:14:47;;;;;;;;;0.75;0.00;;;;;21.14;59.92;101243.88;2394957;28;45700;-84
2022/10/16 12:16:12;;;;;;;;;0.25;0.25;;;;;21.16;60.12;101240.25;2387228;28;45680;-83
2022/10/16 12:17:27;;;;;;;;;2.00;0.50;;;;;21.16;59.81;101240.25;2372973;28;47300;-83
2022/10/16 12:18:39;;;;;;;;;1.00;0.50;;;;;21.16;59.89;101245.59;2368239;28;45437;-83
2022/10/16 12:20:20;;;;;;;;;0.25;0.00;;;;;21.14;59.42;101237.66;2381241;28;46642;-83
2022/10/16 12:21:31;;;;;;;;;1.00;1.00;;;;;21.12;60.60;101240.44;2377622;28;44543;-83
2022/10/16 12:22:48;;;;;;;;;1.00;1.00;;;;;21.14;60.08;101238.53;2371113;28;48393;-83
2022/10/16 12:24:01;;;;;;;;;1.00;1.00;;;;;21.13;59.60;101233.28;2373819;28;45488;-83
2022/10/16 12:25:31;;;;;;;;;1.00;1.00;;;;;21.14;61.20;101241.19;2376521;28;45543;-83
2022/10/16 12:26:52;;;;;;;;;0.75;0.75;;;;;21.13;60.90;101241.31;2381553;28;45454;-83
2022/10/16 12:28:20;;;;;;;;;1.00;1.00;;;;;21.15;60.15;101239.38;2387400;28;45382;-84
2022/10/16 12:29:44;;;;;;;;;1.00;1.00;;;;;21.17;59.67;101236.59;2389468;28;45472;-84
2022/10/16 12:31:03;;;;;;;;;1.00;1.00;;;;;21.17;59.91;101236.59;2390515;28;46416;-84
2022/10/16 12:32:40;;;;;;;;;1.00;1.00;;;;;21.18;60.46;101238.31;2391915;28;45303;-84
2022/10/16 12:34:03;;;;;;;;;2.00;0.75;;;;;21.19;60.00;101232.84;2358670;28;47642;-85
2022/10/16 12:35:23;;;;;;;;;0.00;0.00;;;;;21.19;60.20;101232.00;2376818;28;45390;-84
2022/10/16 12:36:35;;;;;;;;;1.00;0.00;;;;;21.20;59.93;101231.91;2381346;28;47817;-84
2022/10/16 12:37:45;;;;;;;;;1.00;1.00;;;;;21.19;59.94;101229.31;2386974;28;45364;-84
2022/10/16 12:38:56;;;;;;;;;1.00;1.00;;;;;21.21;59.35;101233.59;2382565;28;47151;-84
2022/10/16 12:40:37;;;;;;;;;1.00;1.00;;;;;21.23;59.42;101226.34;2386151;28;45347;-83
2022/10/16 12:41:47;;;;;;;;;2.00;1.00;;;;;21.23;59.53;101226.34;2376945;28;46332;-84
2022/10/16 12:42:58;;;;;;;;;0.75;0.75;;;;;21.25;60.34;101231.56;2385429;28;45155;-84
2022/10/16 12:44:26;;;;;;;;;1.00;1.00;;;;;21.25;60.17;101229.75;2374284;28;46260;-84
2022/10/16 12:45:36;;;;;;;;;1.00;0.75;;;;;21.28;60.04;101226.00;2379461;28;45289;-84
2022/10/16 12:46:47;;;;;;;;;2.50;1.25;;;;;21.29;61.07;101230.38;2393292;28;45370;-83
2022/10/16 12:47:59;;;;;;;;;1.00;1.00;;;;;21.33;59.79;101226.53;2388284;28;45132;-83
2022/10/16 12:49:12;;;;;;;;;1.00;1.00;;;;;21.36;59.80;101230.78;2388030;28;45635;-84
2022/10/16 12:50:38;;;;;;;;;1.00;1.00;;;;;21.36;59.94;101231.66;2381599;28;45440;-83
2022/10/16 12:51:48;;;;;;;;;1.00;1.00;;;;;21.34;60.20;101217.53;2383327;28;46303;-84
2022/10/16 12:53:01;;;;;;;;;1.00;1.00;;;;;21.35;60.40;101219.25;2382236;28;45296;-83
2022/10/16 12:54:11;;;;;;;;;1.00;1.00;;;;;21.38;59.72;101220.00;2378678;28;45341;-84
2022/10/16 12:55:22;;;;;;;;;1.00;1.00;;;;;21.36;60.09;101214.75;2385338;28;45267;-84
2022/10/16 12:56:43;;;;;;;;;1.00;1.00;;;;;21.40;59.39;101212.72;2381464;28;47318;-85
2022/10/16 12:57:59;;;;;;;;;0.50;0.50;;;;;21.42;59.70;101213.47;2385653;28;45504;-85
2022/10/16 12:59:09;;;;;;;;;0.25;0.25;;;;;21.43;59.18;101209.84;2385028;28;46480;-86
2022/10/16 13:00:45;;;;;;;;;1.75;1.00;;;;;21.45;59.54;101208.75;2383790;28;45240;-84
2022/10/16 13:02:01;;;;;;;;;2.00;2.00;;;;;21.48;59.76;101211.19;2380640;28;47384;-85
2022/10/16 13:03:38;;;;;;;;;1.00;1.00;;;;;21.52;59.74;101208.31;2387692;28;45248;-85
2022/10/16 13:05:21;;;;;;;;;1.00;1.00;;;;;21.52;59.13;101197.59;2394011;28;46528;-83
2022/10/16 13:06:43;;;;;;;;;1.00;1.00;;;;;21.54;59.09;101195.66;2386489;28;45249;-84
2022/10/16 13:08:12;;;;;;;;;1.50;1.50;;;;;21.56;60.42;101202.63;2377157;28;47256;-83
2022/10/16 13:09:55;;;;;;;;;1.25;1.25;;;;;21.58;59.64;101202.53;2385163;28;44708;-83
2022/10/16 13:11:37;;;;;;;;;1.50;1.50;;;;;21.58;59.55;101203.34;2388408;28;45405;-82
2022/10/16 13:13:29;;;;;;;;;2.75;1.50;;;;;21.58;59.08;101206.03;2356104;29;45387;-83
2022/10/16 13:14:54;;;;;;;;;1.00;1.00;;;;;21.59;59.73;101209.56;2365176;29;48309;-83
2022/10/16 13:16:44;;;;;;;;;1.75;1.75;;;;;21.58;59.40;101203.34;2368190;28;45672;-84
2022/10/16 13:18:19;;;;;;;;;1.00;1.00;;;;;21.57;59.56;101196.31;2391895;28;46794;-84
2022/10/16 13:19:43;;;;;;;;;2.00;2.00;;;;;21.56;59.72;101194.59;2394283;28;45227;-83
2022/10/16 13:21:12;;;;;;;;;1.75;1.50;;;;;21.58;60.93;101198.00;2388868;28;46791;-84
2022/10/16 13:23:00;;;;;;;;;2.00;2.00;;;;;21.57;60.43;101195.44;2388916;28;45267;-85
2022/10/16 13:24:24;;;;;;;;;2.00;2.00;;;;;21.53;60.32;101194.81;2378633;28;47214;-84
2022/10/16 13:25:34;;;;;;;;;2.25;2.25;;;;;21.51;60.37;101196.75;2388520;28;45351;-84
2022/10/16 13:26:54;;;;;;;;;2.00;2.00;;;;;21.47;60.33;101189.91;2391551;28;45331;-84
2022/10/16 13:28:10;;;;;;;;;3.00;2.00;;;;;21.43;59.83;101183.97;2383699;28;47015;-84
2022/10/16 13:29:22;;;;;;;;;4.00;2.00;;;;;21.40;61.72;101186.84;2388085;28;45424;-84
2022/10/16 13:30:41;;;;;;;;;2.25;2.25;;;;;21.36;60.77;101183.53;2391854;28;44867;-84
2022/10/16 13:31:52;;;;;;;;;3.25;3.25;;;;;21.33;61.13;101175.75;2392194;28;45429;-85
2022/10/16 13:33:07;;;;;;;;;2.00;1.50;;;;;21.29;60.27;101168.03;2386639;28;45491;-84
2022/10/16 13:34:21;;;;;;;;;3.25;2.25;;;;;21.27;61.50;101170.84;2390095;28;45388;-85
2022/10/16 13:35:34;;;;;;;;;1.25;1.25;;;;;21.24;60.42;101179.94;2389358;28;44784;-84
2022/10/16 13:36:50;;;;;;;;;1.00;1.00;;;;;21.22;59.98;101181.84;2398542;28;45579;-84
2022/10/16 13:38:14;;;;;;;;;2.00;2.00;;;;;21.18;60.51;101176.84;2383701;28;45270;-84
2022/10/16 13:39:30;;;;;;;;;2.50;2.50;;;;;21.13;60.64;101180.72;2380048;28;46411;-84
2022/10/16 13:40:49;;;;;;;;;2.25;2.25;;;;;21.09;60.60;101181.00;2385183;28;45172;-84
2022/10/16 13:42:12;;;;;;;;;2.00;2.00;;;;;21.07;60.60;101185.63;2390096;28;45464;-84